sensor_id;sensor_type;location;lat;lon;timestamp;P1;durP1;ratioP1;P2;durP2;ratioP2
10554;SDS011;5326;51.522;7.388;2022-11-15T00:00:30;10.30;;;6.33;;
10554;SDS011;5326;51.522;7.388;2022-11-15T00:02:56;7.17;;;6.13;;
10554;SDS011;5326;51.522;7.388;2022-11-15T00:05:23;9.67;;;6.57;;
10554;SDS011;5326;51.522;7.388;2022-11-15T00:07:50;9.93;;;6.43;;
10554;SDS011;5326;51.522;7.388;2022-11-15T00:10:21;9.13;;;5.90;;
10554;SDS011;5326;51.522;7.388;2022-11-15T00:12:48;10.77;;;6.70;;
10554;SDS011;5326;51.522;7.388;2022-11-15T00:15:14;9.33;;;5.63;;
10554;SDS011;5326;51.522;7.388;2022-11-15T00:17:41;9.97;;;6.20;;
10554;SDS011;5326;51.522;7.388;2022-11-15T00:20:08;7.57;;;5.80;;
10554;SDS011;5326;51.522;7.388;2022-11-15T00:22:35;12.70;;;6.77;;
10554;SDS011;5326;51.522;7.388;2022-11-15T00:25:01;11.50;;;6.40;;
10554;SDS011;5326;51.522;7.388;2022-11-15T00:27:29;9.07;;;6.17;;
10554;SDS011;5326;51.522;7.388;2022-11-15T00:29:56;11.53;;;6.50;;
10554;SDS011;5326;51.522;7.388;2022-11-15T00:32:22;10.20;;;6.47;;
10554;SDS011;5326;51.522;7.388;2022-11-15T00:34:49;9.30;;;5.83;;
10554;SDS011;5326;51.522;7.388;2022-11-15T00:37:15;8.83;;;6.13;;
10554;SDS011;5326;51.522;7.388;2022-11-15T00:39:42;10.60;;;6.10;;
10554;SDS011;5326;51.522;7.388;2022-11-15T00:42:09;7.70;;;5.50;;
10554;SDS011;5326;51.522;7.388;2022-11-15T00:44:35;10.97;;;5.97;;
10554;SDS011;5326;51.522;7.388;2022-11-15T00:47:04;8.27;;;5.93;;
10554;SDS011;5326;51.522;7.388;2022-11-15T00:49:31;10.13;;;6.37;;
10554;SDS011;5326;51.522;7.388;2022-11-15T00:51:58;8.30;;;5.60;;
10554;SDS011;5326;51.522;7.388;2022-11-15T00:54:24;7.47;;;5.70;;
10554;SDS011;5326;51.522;7.388;2022-11-15T00:56:51;7.57;;;6.60;;
10554;SDS011;5326;51.522;7.388;2022-11-15T00:59:17;5.90;;;5.30;;
10554;SDS011;5326;51.522;7.388;2022-11-15T01:01:44;6.97;;;5.37;;
10554;SDS011;5326;51.522;7.388;2022-11-15T01:04:10;8.37;;;5.30;;
10554;SDS011;5326;51.522;7.388;2022-11-15T01:06:37;9.57;;;5.83;;
10554;SDS011;5326;51.522;7.388;2022-11-15T01:09:03;7.53;;;5.90;;
10554;SDS011;5326;51.522;7.388;2022-11-15T01:11:30;7.70;;;5.53;;
10554;SDS011;5326;51.522;7.388;2022-11-15T01:13:57;7.30;;;6.00;;
10554;SDS011;5326;51.522;7.388;2022-11-15T01:16:23;8.00;;;5.50;;
10554;SDS011;5326;51.522;7.388;2022-11-15T01:18:50;10.40;;;5.37;;
10554;SDS011;5326;51.522;7.388;2022-11-15T01:21:17;9.53;;;5.77;;
10554;SDS011;5326;51.522;7.388;2022-11-15T01:23:44;9.90;;;5.87;;
10554;SDS011;5326;51.522;7.388;2022-11-15T01:26:12;8.20;;;6.00;;
10554;SDS011;5326;51.522;7.388;2022-11-15T01:28:40;8.33;;;5.70;;
10554;SDS011;5326;51.522;7.388;2022-11-15T01:31:14;9.40;;;5.90;;
10554;SDS011;5326;51.522;7.388;2022-11-15T01:33:42;7.43;;;5.50;;
10554;SDS011;5326;51.522;7.388;2022-11-15T01:36:19;7.73;;;5.73;;
10554;SDS011;5326;51.522;7.388;2022-11-15T01:38:54;7.67;;;5.87;;
10554;SDS011;5326;51.522;7.388;2022-11-15T01:41:23;12.57;;;6.60;;
10554;SDS011;5326;51.522;7.388;2022-11-15T01:43:52;9.57;;;5.50;;
10554;SDS011;5326;51.522;7.388;2022-11-15T01:46:30;8.03;;;5.90;;
10554;SDS011;5326;51.522;7.388;2022-11-15T01:49:04;7.40;;;5.43;;
10554;SDS011;5326;51.522;7.388;2022-11-15T01:51:32;8.20;;;5.40;;
10554;SDS011;5326;51.522;7.388;2022-11-15T01:54:01;6.97;;;5.70;;
10554;SDS011;5326;51.522;7.388;2022-11-15T01:56:31;11.90;;;5.50;;
10554;SDS011;5326;51.522;7.388;2022-11-15T01:58:59;9.00;;;5.90;;
10554;SDS011;5326;51.522;7.388;2022-11-15T02:01:29;6.50;;;5.40;;
10554;SDS011;5326;51.522;7.388;2022-11-15T02:04:32;6.33;;;4.63;;
10554;SDS011;5326;51.522;7.388;2022-11-15T02:06:51;9.20;;;5.87;;
10554;SDS011;5326;51.522;7.388;2022-11-15T02:09:18;8.07;;;5.70;;
10554;SDS011;5326;51.522;7.388;2022-11-15T02:11:45;6.93;;;5.40;;
10554;SDS011;5326;51.522;7.388;2022-11-15T02:14:12;6.60;;;5.60;;
10554;SDS011;5326;51.522;7.388;2022-11-15T02:33:07;10.20;;;5.57;;
10554;SDS011;5326;51.522;7.388;2022-11-15T02:41:04;8.17;;;5.80;;
10554;SDS011;5326;51.522;7.388;2022-11-15T02:43:41;9.87;;;6.00;;
10554;SDS011;5326;51.522;7.388;2022-11-15T02:46:32;7.60;;;5.10;;
10554;SDS011;5326;51.522;7.388;2022-11-15T02:49:19;8.60;;;5.43;;
10554;SDS011;5326;51.522;7.388;2022-11-15T02:51:46;8.13;;;6.10;;
10554;SDS011;5326;51.522;7.388;2022-11-15T02:54:15;7.77;;;5.93;;
10554;SDS011;5326;51.522;7.388;2022-11-15T02:56:46;9.03;;;5.80;;
10554;SDS011;5326;51.522;7.388;2022-11-15T03:08:12;9.17;;;5.67;;
10554;SDS011;5326;51.522;7.388;2022-11-15T03:13:26;8.67;;;6.07;;
10554;SDS011;5326;51.522;7.388;2022-11-15T03:15:58;8.53;;;6.00;;
10554;SDS011;5326;51.522;7.388;2022-11-15T03:18:34;9.43;;;6.10;;
10554;SDS011;5326;51.522;7.388;2022-11-15T03:21:03;8.70;;;5.90;;
10554;SDS011;5326;51.522;7.388;2022-11-15T03:23:32;9.07;;;6.10;;
10554;SDS011;5326;51.522;7.388;2022-11-15T03:25:59;8.53;;;6.53;;
10554;SDS011;5326;51.522;7.388;2022-11-15T03:28:34;11.93;;;6.80;;
10554;SDS011;5326;51.522;7.388;2022-11-15T03:31:03;8.60;;;6.50;;
10554;SDS011;5326;51.522;7.388;2022-11-15T03:33:50;7.67;;;6.33;;
10554;SDS011;5326;51.522;7.388;2022-11-15T03:36:19;10.43;;;6.17;;
10554;SDS011;5326;51.522;7.388;2022-11-15T03:38:48;14.23;;;6.17;;
10554;SDS011;5326;51.522;7.388;2022-11-15T03:41:28;10.20;;;6.17;;
10554;SDS011;5326;51.522;7.388;2022-11-15T03:44:08;6.60;;;5.80;;
10554;SDS011;5326;51.522;7.388;2022-11-15T03:49:29;9.80;;;5.97;;
10554;SDS011;5326;51.522;7.388;2022-11-15T03:52:00;8.30;;;5.93;;
10554;SDS011;5326;51.522;7.388;2022-11-15T03:54:29;9.40;;;6.30;;
10554;SDS011;5326;51.522;7.388;2022-11-15T03:56:55;10.23;;;6.30;;
10554;SDS011;5326;51.522;7.388;2022-11-15T03:59:22;8.00;;;5.57;;
10554;SDS011;5326;51.522;7.388;2022-11-15T04:01:49;9.17;;;6.13;;
10554;SDS011;5326;51.522;7.388;2022-11-15T04:04:15;9.30;;;5.80;;
10554;SDS011;5326;51.522;7.388;2022-11-15T04:06:42;7.97;;;5.40;;
10554;SDS011;5326;51.522;7.388;2022-11-15T04:09:08;10.33;;;6.10;;
10554;SDS011;5326;51.522;7.388;2022-11-15T04:11:35;5.80;;;4.67;;
10554;SDS011;5326;51.522;7.388;2022-11-15T04:14:02;6.70;;;5.77;;
10554;SDS011;5326;51.522;7.388;2022-11-15T04:16:28;6.80;;;5.13;;
10554;SDS011;5326;51.522;7.388;2022-11-15T04:18:55;6.90;;;4.87;;
10554;SDS011;5326;51.522;7.388;2022-11-15T04:21:40;8.07;;;5.30;;
10554;SDS011;5326;51.522;7.388;2022-11-15T04:24:25;6.43;;;5.00;;
10554;SDS011;5326;51.522;7.388;2022-11-15T04:26:51;7.30;;;4.80;;
10554;SDS011;5326;51.522;7.388;2022-11-15T04:29:18;7.47;;;5.13;;
10554;SDS011;5326;51.522;7.388;2022-11-15T04:32:03;6.70;;;5.60;;
10554;SDS011;5326;51.522;7.388;2022-11-15T04:34:31;10.07;;;5.83;;
10554;SDS011;5326;51.522;7.388;2022-11-15T04:36:58;6.70;;;5.33;;
10554;SDS011;5326;51.522;7.388;2022-11-15T04:39:41;9.10;;;5.20;;
10554;SDS011;5326;51.522;7.388;2022-11-15T04:42:08;7.87;;;6.60;;
10554;SDS011;5326;51.522;7.388;2022-11-15T04:44:35;9.87;;;6.70;;
10554;SDS011;5326;51.522;7.388;2022-11-15T04:47:02;7.50;;;5.67;;
10554;SDS011;5326;51.522;7.388;2022-11-15T04:49:29;7.67;;;5.73;;
10554;SDS011;5326;51.522;7.388;2022-11-15T04:51:55;5.67;;;5.13;;
10554;SDS011;5326;51.522;7.388;2022-11-15T04:54:22;7.10;;;5.47;;
10554;SDS011;5326;51.522;7.388;2022-11-15T04:56:49;6.77;;;5.70;;
10554;SDS011;5326;51.522;7.388;2022-11-15T04:59:15;9.30;;;5.60;;
10554;SDS011;5326;51.522;7.388;2022-11-15T05:01:42;7.93;;;5.17;;
10554;SDS011;5326;51.522;7.388;2022-11-15T05:04:10;8.80;;;6.90;;
10554;SDS011;5326;51.522;7.388;2022-11-15T05:06:46;16.97;;;13.20;;
10554;SDS011;5326;51.522;7.388;2022-11-15T05:09:15;6.53;;;5.60;;
10554;SDS011;5326;51.522;7.388;2022-11-15T05:11:42;6.97;;;5.47;;
10554;SDS011;5326;51.522;7.388;2022-11-15T05:14:08;6.80;;;5.50;;
10554;SDS011;5326;51.522;7.388;2022-11-15T05:16:35;9.50;;;6.20;;
10554;SDS011;5326;51.522;7.388;2022-11-15T05:19:02;6.60;;;5.60;;
10554;SDS011;5326;51.522;7.388;2022-11-15T05:21:29;6.97;;;5.60;;
10554;SDS011;5326;51.522;7.388;2022-11-15T05:23:56;6.83;;;5.93;;
10554;SDS011;5326;51.522;7.388;2022-11-15T05:26:23;9.10;;;5.40;;
10554;SDS011;5326;51.522;7.388;2022-11-15T05:28:54;5.93;;;5.33;;
10554;SDS011;5326;51.522;7.388;2022-11-15T05:31:21;7.47;;;5.67;;
10554;SDS011;5326;51.522;7.388;2022-11-15T05:33:48;6.43;;;5.63;;
10554;SDS011;5326;51.522;7.388;2022-11-15T05:36:18;5.67;;;5.10;;
10554;SDS011;5326;51.522;7.388;2022-11-15T05:38:54;6.33;;;5.03;;
10554;SDS011;5326;51.522;7.388;2022-11-15T05:41:22;7.60;;;5.50;;
10554;SDS011;5326;51.522;7.388;2022-11-15T05:43:53;5.87;;;5.23;;
10554;SDS011;5326;51.522;7.388;2022-11-15T05:46:20;5.70;;;5.10;;
10554;SDS011;5326;51.522;7.388;2022-11-15T05:48:47;5.73;;;5.10;;
10554;SDS011;5326;51.522;7.388;2022-11-15T05:51:16;5.73;;;5.17;;
10554;SDS011;5326;51.522;7.388;2022-11-15T05:53:43;6.20;;;5.10;;
10554;SDS011;5326;51.522;7.388;2022-11-15T05:56:10;5.73;;;4.97;;
10554;SDS011;5326;51.522;7.388;2022-11-15T05:58:38;5.10;;;4.70;;
10554;SDS011;5326;51.522;7.388;2022-11-15T06:01:04;7.83;;;5.40;;
10554;SDS011;5326;51.522;7.388;2022-11-15T06:03:31;6.87;;;5.10;;
10554;SDS011;5326;51.522;7.388;2022-11-15T06:05:58;5.20;;;4.70;;
10554;SDS011;5326;51.522;7.388;2022-11-15T06:08:25;7.47;;;4.90;;
10554;SDS011;5326;51.522;7.388;2022-11-15T06:10:52;7.63;;;5.00;;
10554;SDS011;5326;51.522;7.388;2022-11-15T06:13:19;7.27;;;4.77;;
10554;SDS011;5326;51.522;7.388;2022-11-15T06:15:46;6.90;;;5.50;;
10554;SDS011;5326;51.522;7.388;2022-11-15T06:18:14;9.87;;;5.03;;
10554;SDS011;5326;51.522;7.388;2022-11-15T06:20:41;6.10;;;4.60;;
10554;SDS011;5326;51.522;7.388;2022-11-15T06:23:07;7.17;;;4.30;;
10554;SDS011;5326;51.522;7.388;2022-11-15T06:25:34;6.63;;;4.50;;
10554;SDS011;5326;51.522;7.388;2022-11-15T06:28:00;5.83;;;4.57;;
10554;SDS011;5326;51.522;7.388;2022-11-15T06:30:27;5.63;;;4.57;;
10554;SDS011;5326;51.522;7.388;2022-11-15T06:33:01;8.87;;;4.60;;
10554;SDS011;5326;51.522;7.388;2022-11-15T06:35:28;5.13;;;4.47;;
10554;SDS011;5326;51.522;7.388;2022-11-15T06:37:56;4.83;;;4.33;;
10554;SDS011;5326;51.522;7.388;2022-11-15T06:40:26;4.30;;;3.90;;
10554;SDS011;5326;51.522;7.388;2022-11-15T06:42:57;5.47;;;3.73;;
10554;SDS011;5326;51.522;7.388;2022-11-15T06:45:24;3.90;;;3.53;;
10554;SDS011;5326;51.522;7.388;2022-11-15T06:47:51;5.30;;;3.80;;
10554;SDS011;5326;51.522;7.388;2022-11-15T06:50:19;4.30;;;3.27;;
10554;SDS011;5326;51.522;7.388;2022-11-15T06:52:46;3.50;;;3.20;;
10554;SDS011;5326;51.522;7.388;2022-11-15T06:55:13;5.80;;;3.33;;
10554;SDS011;5326;51.522;7.388;2022-11-15T06:57:49;4.10;;;3.23;;
10554;SDS011;5326;51.522;7.388;2022-11-15T07:00:17;3.77;;;3.20;;
10554;SDS011;5326;51.522;7.388;2022-11-15T07:02:45;5.47;;;3.47;;
10554;SDS011;5326;51.522;7.388;2022-11-15T07:05:14;3.37;;;2.90;;
10554;SDS011;5326;51.522;7.388;2022-11-15T07:07:41;4.03;;;3.00;;
10554;SDS011;5326;51.522;7.388;2022-11-15T07:10:09;4.97;;;3.00;;
10554;SDS011;5326;51.522;7.388;2022-11-15T07:12:36;2.80;;;2.60;;
10554;SDS011;5326;51.522;7.388;2022-11-15T07:15:03;2.63;;;2.43;;
10554;SDS011;5326;51.522;7.388;2022-11-15T07:17:30;2.83;;;2.63;;
10554;SDS011;5326;51.522;7.388;2022-11-15T07:19:57;3.70;;;2.40;;
10554;SDS011;5326;51.522;7.388;2022-11-15T07:22:23;2.40;;;2.20;;
10554;SDS011;5326;51.522;7.388;2022-11-15T07:24:50;3.20;;;2.40;;
10554;SDS011;5326;51.522;7.388;2022-11-15T07:27:17;3.20;;;2.63;;
10554;SDS011;5326;51.522;7.388;2022-11-15T07:29:43;2.30;;;2.10;;
10554;SDS011;5326;51.522;7.388;2022-11-15T07:32:10;4.53;;;2.20;;
10554;SDS011;5326;51.522;7.388;2022-11-15T07:34:36;3.60;;;2.17;;
10554;SDS011;5326;51.522;7.388;2022-11-15T07:37:03;3.67;;;2.30;;
10554;SDS011;5326;51.522;7.388;2022-11-15T07:39:30;4.43;;;2.50;;
10554;SDS011;5326;51.522;7.388;2022-11-15T07:41:56;5.70;;;2.37;;
10554;SDS011;5326;51.522;7.388;2022-11-15T07:44:43;3.20;;;1.90;;
10554;SDS011;5326;51.522;7.388;2022-11-15T07:47:09;3.03;;;2.20;;
10554;SDS011;5326;51.522;7.388;2022-11-15T07:49:36;4.43;;;2.13;;
10554;SDS011;5326;51.522;7.388;2022-11-15T07:52:03;4.13;;;2.10;;
10554;SDS011;5326;51.522;7.388;2022-11-15T07:54:29;2.87;;;2.40;;
10554;SDS011;5326;51.522;7.388;2022-11-15T07:56:56;2.10;;;1.90;;
10554;SDS011;5326;51.522;7.388;2022-11-15T07:59:27;2.57;;;2.37;;
10554;SDS011;5326;51.522;7.388;2022-11-15T08:01:54;2.60;;;2.20;;
10554;SDS011;5326;51.522;7.388;2022-11-15T08:04:21;4.17;;;2.43;;
10554;SDS011;5326;51.522;7.388;2022-11-15T08:06:47;3.30;;;2.47;;
10554;SDS011;5326;51.522;7.388;2022-11-15T08:09:14;2.83;;;2.20;;
10554;SDS011;5326;51.522;7.388;2022-11-15T08:11:40;3.87;;;2.30;;
10554;SDS011;5326;51.522;7.388;2022-11-15T08:14:07;3.17;;;2.40;;
10554;SDS011;5326;51.522;7.388;2022-11-15T08:16:34;4.67;;;2.13;;
10554;SDS011;5326;51.522;7.388;2022-11-15T08:19:00;2.63;;;2.33;;
10554;SDS011;5326;51.522;7.388;2022-11-15T08:21:27;2.60;;;2.00;;
10554;SDS011;5326;51.522;7.388;2022-11-15T08:23:53;2.67;;;2.00;;
10554;SDS011;5326;51.522;7.388;2022-11-15T08:26:20;2.10;;;1.90;;
10554;SDS011;5326;51.522;7.388;2022-11-15T08:28:46;2.33;;;2.00;;
10554;SDS011;5326;51.522;7.388;2022-11-15T08:31:14;4.00;;;2.10;;
10554;SDS011;5326;51.522;7.388;2022-11-15T08:33:43;2.90;;;2.30;;
10554;SDS011;5326;51.522;7.388;2022-11-15T08:36:14;3.67;;;2.00;;
10554;SDS011;5326;51.522;7.388;2022-11-15T08:38:41;2.73;;;1.90;;
10554;SDS011;5326;51.522;7.388;2022-11-15T08:41:10;5.50;;;1.97;;
10554;SDS011;5326;51.522;7.388;2022-11-15T08:43:39;2.80;;;1.90;;
10554;SDS011;5326;51.522;7.388;2022-11-15T08:46:07;4.17;;;2.30;;
10554;SDS011;5326;51.522;7.388;2022-11-15T08:48:36;3.20;;;2.00;;
10554;SDS011;5326;51.522;7.388;2022-11-15T08:51:03;3.90;;;1.87;;
10554;SDS011;5326;51.522;7.388;2022-11-15T08:53:29;6.33;;;2.43;;
10554;SDS011;5326;51.522;7.388;2022-11-15T08:55:56;9.63;;;2.47;;
10554;SDS011;5326;51.522;7.388;2022-11-15T08:58:22;2.37;;;1.90;;
10554;SDS011;5326;51.522;7.388;2022-11-15T09:00:50;2.60;;;1.97;;
10554;SDS011;5326;51.522;7.388;2022-11-15T09:03:17;3.07;;;1.70;;
10554;SDS011;5326;51.522;7.388;2022-11-15T09:05:44;3.10;;;1.70;;
10554;SDS011;5326;51.522;7.388;2022-11-15T09:08:10;2.00;;;1.60;;
10554;SDS011;5326;51.522;7.388;2022-11-15T09:11:02;2.27;;;1.70;;
10554;SDS011;5326;51.522;7.388;2022-11-15T09:13:29;2.63;;;1.70;;
10554;SDS011;5326;51.522;7.388;2022-11-15T09:15:59;2.63;;;1.70;;
10554;SDS011;5326;51.522;7.388;2022-11-15T09:18:27;1.70;;;1.60;;
10554;SDS011;5326;51.522;7.388;2022-11-15T09:20:55;4.70;;;1.70;;
10554;SDS011;5326;51.522;7.388;2022-11-15T09:23:25;2.97;;;1.90;;
10554;SDS011;5326;51.522;7.388;2022-11-15T09:25:52;4.40;;;1.57;;
10554;SDS011;5326;51.522;7.388;2022-11-15T09:28:24;1.90;;;1.70;;
10554;SDS011;5326;51.522;7.388;2022-11-15T09:30:50;2.77;;;1.83;;
10554;SDS011;5326;51.522;7.388;2022-11-15T09:33:17;4.67;;;1.77;;
10554;SDS011;5326;51.522;7.388;2022-11-15T09:35:44;3.23;;;1.60;;
10554;SDS011;5326;51.522;7.388;2022-11-15T09:38:10;3.17;;;1.50;;
10554;SDS011;5326;51.522;7.388;2022-11-15T09:40:37;5.60;;;1.67;;
10554;SDS011;5326;51.522;7.388;2022-11-15T09:49:02;1.90;;;1.50;;
10554;SDS011;5326;51.522;7.388;2022-11-15T09:51:37;1.80;;;1.43;;
10554;SDS011;5326;51.522;7.388;2022-11-15T09:54:29;1.60;;;1.40;;
10554;SDS011;5326;51.522;7.388;2022-11-15T10:03:06;3.17;;;1.50;;
10554;SDS011;5326;51.522;7.388;2022-11-15T10:05:39;2.63;;;1.63;;
10554;SDS011;5326;51.522;7.388;2022-11-15T10:10:59;2.43;;;1.37;;
10554;SDS011;5326;51.522;7.388;2022-11-15T10:13:48;1.80;;;1.40;;
10554;SDS011;5326;51.522;7.388;2022-11-15T10:24:34;2.87;;;1.23;;
10554;SDS011;5326;51.522;7.388;2022-11-15T10:27:07;3.63;;;1.20;;
10554;SDS011;5326;51.522;7.388;2022-11-15T10:29:40;3.13;;;1.30;;
10554;SDS011;5326;51.522;7.388;2022-11-15T10:32:10;3.80;;;1.50;;
10554;SDS011;5326;51.522;7.388;2022-11-15T10:34:38;1.60;;;1.20;;
10554;SDS011;5326;51.522;7.388;2022-11-15T10:37:04;2.23;;;1.20;;
10554;SDS011;5326;51.522;7.388;2022-11-15T10:39:31;2.40;;;1.50;;
10554;SDS011;5326;51.522;7.388;2022-11-15T10:42:16;3.60;;;1.50;;
10554;SDS011;5326;51.522;7.388;2022-11-15T10:44:43;2.67;;;1.40;;
10554;SDS011;5326;51.522;7.388;2022-11-15T10:47:21;1.90;;;1.10;;
10554;SDS011;5326;51.522;7.388;2022-11-15T10:49:54;3.90;;;1.20;;
10554;SDS011;5326;51.522;7.388;2022-11-15T10:52:33;2.40;;;1.33;;
10554;SDS011;5326;51.522;7.388;2022-11-15T10:57:48;4.13;;;1.30;;
10554;SDS011;5326;51.522;7.388;2022-11-15T11:05:39;1.63;;;1.20;;
10554;SDS011;5326;51.522;7.388;2022-11-15T11:11:02;5.77;;;1.53;;
10554;SDS011;5326;51.522;7.388;2022-11-15T11:13:30;2.03;;;1.17;;
10554;SDS011;5326;51.522;7.388;2022-11-15T11:18:52;2.60;;;1.40;;
10554;SDS011;5326;51.522;7.388;2022-11-15T11:24:12;2.63;;;1.10;;
10554;SDS011;5326;51.522;7.388;2022-11-15T11:37:52;1.20;;;1.10;;
10554;SDS011;5326;51.522;7.388;2022-11-15T11:40:40;2.30;;;1.23;;
10554;SDS011;5326;51.522;7.388;2022-11-15T11:51:08;2.80;;;1.37;;
10554;SDS011;5326;51.522;7.388;2022-11-15T11:53:59;5.90;;;1.50;;
10554;SDS011;5326;51.522;7.388;2022-11-15T11:56:33;2.43;;;1.07;;
10554;SDS011;5326;51.522;7.388;2022-11-15T11:59:25;3.23;;;1.33;;
10554;SDS011;5326;51.522;7.388;2022-11-15T12:05:01;2.40;;;1.17;;
10554;SDS011;5326;51.522;7.388;2022-11-15T12:07:40;2.87;;;1.20;;
10554;SDS011;5326;51.522;7.388;2022-11-15T12:12:56;2.83;;;1.30;;
10554;SDS011;5326;51.522;7.388;2022-11-15T12:15:30;1.90;;;1.30;;
10554;SDS011;5326;51.522;7.388;2022-11-15T12:17:59;3.13;;;1.20;;
10554;SDS011;5326;51.522;7.388;2022-11-15T12:20:27;2.23;;;1.23;;
10554;SDS011;5326;51.522;7.388;2022-11-15T12:23:05;2.20;;;1.10;;
10554;SDS011;5326;51.522;7.388;2022-11-15T12:25:51;2.03;;;1.30;;
10554;SDS011;5326;51.522;7.388;2022-11-15T12:28:21;2.33;;;1.00;;
10554;SDS011;5326;51.522;7.388;2022-11-15T12:31:24;2.77;;;1.10;;
10554;SDS011;5326;51.522;7.388;2022-11-15T12:33:57;4.67;;;1.30;;
10554;SDS011;5326;51.522;7.388;2022-11-15T12:39:07;1.90;;;1.10;;
10554;SDS011;5326;51.522;7.388;2022-11-15T12:41:36;2.37;;;1.53;;
10554;SDS011;5326;51.522;7.388;2022-11-15T12:44:03;6.37;;;1.67;;
10554;SDS011;5326;51.522;7.388;2022-11-15T12:49:08;2.60;;;1.23;;
10554;SDS011;5326;51.522;7.388;2022-11-15T13:02:39;3.67;;;1.43;;
10554;SDS011;5326;51.522;7.388;2022-11-15T13:17:42;3.50;;;1.23;;
10554;SDS011;5326;51.522;7.388;2022-11-15T13:22:41;4.00;;;1.50;;
10554;SDS011;5326;51.522;7.388;2022-11-15T13:28:09;2.17;;;1.33;;
10554;SDS011;5326;51.522;7.388;2022-11-15T13:30:40;5.63;;;1.50;;
10554;SDS011;5326;51.522;7.388;2022-11-15T13:33:18;4.83;;;1.17;;
10554;SDS011;5326;51.522;7.388;2022-11-15T13:35:46;2.73;;;1.50;;
10554;SDS011;5326;51.522;7.388;2022-11-15T13:40:55;2.60;;;1.40;;
10554;SDS011;5326;51.522;7.388;2022-11-15T13:48:39;2.47;;;1.10;;
10554;SDS011;5326;51.522;7.388;2022-11-15T13:51:08;4.10;;;1.27;;
10554;SDS011;5326;51.522;7.388;2022-11-15T13:53:42;2.67;;;1.40;;
10554;SDS011;5326;51.522;7.388;2022-11-15T13:56:13;2.90;;;1.23;;
10554;SDS011;5326;51.522;7.388;2022-11-15T13:58:41;1.67;;;1.17;;
10554;SDS011;5326;51.522;7.388;2022-11-15T14:01:08;3.27;;;1.20;;
10554;SDS011;5326;51.522;7.388;2022-11-15T14:04:02;2.70;;;1.17;;
10554;SDS011;5326;51.522;7.388;2022-11-15T14:06:28;2.83;;;1.00;;
10554;SDS011;5326;51.522;7.388;2022-11-15T14:11:48;2.47;;;1.30;;
10554;SDS011;5326;51.522;7.388;2022-11-15T14:14:19;4.93;;;1.70;;
10554;SDS011;5326;51.522;7.388;2022-11-15T14:16:49;2.30;;;1.40;;
10554;SDS011;5326;51.522;7.388;2022-11-15T14:24:39;3.70;;;1.70;;
10554;SDS011;5326;51.522;7.388;2022-11-15T14:27:21;3.30;;;1.60;;
10554;SDS011;5326;51.522;7.388;2022-11-15T14:29:49;3.43;;;1.53;;
10554;SDS011;5326;51.522;7.388;2022-11-15T14:32:26;4.97;;;1.70;;
10554;SDS011;5326;51.522;7.388;2022-11-15T14:34:58;2.90;;;1.43;;
10554;SDS011;5326;51.522;7.388;2022-11-15T14:37:26;4.47;;;1.63;;
10554;SDS011;5326;51.522;7.388;2022-11-15T14:39:55;3.57;;;1.60;;
10554;SDS011;5326;51.522;7.388;2022-11-15T14:42:22;5.33;;;1.53;;
10554;SDS011;5326;51.522;7.388;2022-11-15T14:44:49;6.97;;;2.30;;
10554;SDS011;5326;51.522;7.388;2022-11-15T14:47:16;2.23;;;1.60;;
10554;SDS011;5326;51.522;7.388;2022-11-15T14:49:43;3.07;;;1.60;;
10554;SDS011;5326;51.522;7.388;2022-11-15T14:52:44;5.27;;;2.00;;
10554;SDS011;5326;51.522;7.388;2022-11-15T14:55:08;3.17;;;2.07;;
10554;SDS011;5326;51.522;7.388;2022-11-15T14:57:58;5.20;;;1.90;;
10554;SDS011;5326;51.522;7.388;2022-11-15T15:00:25;3.53;;;2.10;;
10554;SDS011;5326;51.522;7.388;2022-11-15T15:02:59;2.30;;;2.10;;
10554;SDS011;5326;51.522;7.388;2022-11-15T15:07:55;4.50;;;2.30;;
10554;SDS011;5326;51.522;7.388;2022-11-15T15:10:22;5.90;;;2.60;;
10554;SDS011;5326;51.522;7.388;2022-11-15T15:13:05;3.20;;;2.27;;
10554;SDS011;5326;51.522;7.388;2022-11-15T15:15:35;3.83;;;2.47;;
10554;SDS011;5326;51.522;7.388;2022-11-15T15:18:06;7.73;;;2.43;;
10554;SDS011;5326;51.522;7.388;2022-11-15T15:20:35;4.03;;;2.50;;
10554;SDS011;5326;51.522;7.388;2022-11-15T15:23:02;3.80;;;1.90;;
10554;SDS011;5326;51.522;7.388;2022-11-15T15:25:33;3.63;;;1.90;;
10554;SDS011;5326;51.522;7.388;2022-11-15T15:28:01;3.17;;;1.60;;
10554;SDS011;5326;51.522;7.388;2022-11-15T15:30:29;3.00;;;1.70;;
10554;SDS011;5326;51.522;7.388;2022-11-15T15:32:56;4.07;;;1.70;;
10554;SDS011;5326;51.522;7.388;2022-11-15T15:35:23;3.53;;;1.63;;
10554;SDS011;5326;51.522;7.388;2022-11-15T15:37:49;2.27;;;1.80;;
10554;SDS011;5326;51.522;7.388;2022-11-15T15:40:21;3.50;;;1.70;;
10554;SDS011;5326;51.522;7.388;2022-11-15T15:42:51;1.70;;;1.60;;
10554;SDS011;5326;51.522;7.388;2022-11-15T15:45:18;4.50;;;1.80;;
10554;SDS011;5326;51.522;7.388;2022-11-15T15:47:45;2.50;;;1.90;;
10554;SDS011;5326;51.522;7.388;2022-11-15T15:52:53;5.60;;;2.00;;
10554;SDS011;5326;51.522;7.388;2022-11-15T15:55:21;4.93;;;1.70;;
10554;SDS011;5326;51.522;7.388;2022-11-15T15:57:48;3.63;;;1.80;;
10554;SDS011;5326;51.522;7.388;2022-11-15T16:00:16;3.43;;;1.80;;
10554;SDS011;5326;51.522;7.388;2022-11-15T16:02:44;3.67;;;1.90;;
10554;SDS011;5326;51.522;7.388;2022-11-15T16:05:10;2.53;;;1.90;;
10554;SDS011;5326;51.522;7.388;2022-11-15T16:07:38;2.40;;;1.70;;
10554;SDS011;5326;51.522;7.388;2022-11-15T16:12:55;5.83;;;1.70;;
10554;SDS011;5326;51.522;7.388;2022-11-15T16:15:24;3.73;;;1.83;;
10554;SDS011;5326;51.522;7.388;2022-11-15T16:17:53;5.30;;;1.73;;
10554;SDS011;5326;51.522;7.388;2022-11-15T16:23:01;2.90;;;1.63;;
10554;SDS011;5326;51.522;7.388;2022-11-15T16:28:24;1.70;;;1.60;;
10554;SDS011;5326;51.522;7.388;2022-11-15T16:31:03;2.87;;;1.80;;
10554;SDS011;5326;51.522;7.388;2022-11-15T16:33:31;2.13;;;1.90;;
10554;SDS011;5326;51.522;7.388;2022-11-15T16:35:59;3.17;;;1.90;;
10554;SDS011;5326;51.522;7.388;2022-11-15T16:38:26;2.53;;;1.90;;
10554;SDS011;5326;51.522;7.388;2022-11-15T16:40:53;2.57;;;1.90;;
10554;SDS011;5326;51.522;7.388;2022-11-15T16:43:20;2.83;;;1.70;;
10554;SDS011;5326;51.522;7.388;2022-11-15T16:45:46;4.30;;;1.67;;
10554;SDS011;5326;51.522;7.388;2022-11-15T16:48:23;3.90;;;1.93;;
10554;SDS011;5326;51.522;7.388;2022-11-15T16:50:56;2.67;;;1.87;;
10554;SDS011;5326;51.522;7.388;2022-11-15T16:53:24;5.70;;;1.97;;
10554;SDS011;5326;51.522;7.388;2022-11-15T16:55:51;3.40;;;1.87;;
10554;SDS011;5326;51.522;7.388;2022-11-15T16:58:20;2.80;;;1.80;;
10554;SDS011;5326;51.522;7.388;2022-11-15T17:00:53;3.90;;;1.87;;
10554;SDS011;5326;51.522;7.388;2022-11-15T17:03:21;2.80;;;2.00;;
10554;SDS011;5326;51.522;7.388;2022-11-15T17:05:49;3.07;;;2.10;;
10554;SDS011;5326;51.522;7.388;2022-11-15T17:08:16;3.53;;;2.00;;
10554;SDS011;5326;51.522;7.388;2022-11-15T17:10:46;4.10;;;2.27;;
10554;SDS011;5326;51.522;7.388;2022-11-15T17:13:12;3.33;;;1.80;;
10554;SDS011;5326;51.522;7.388;2022-11-15T17:15:39;3.33;;;1.67;;
10554;SDS011;5326;51.522;7.388;2022-11-15T17:18:09;3.47;;;2.00;;
10554;SDS011;5326;51.522;7.388;2022-11-15T17:20:36;4.70;;;1.80;;
10554;SDS011;5326;51.522;7.388;2022-11-15T17:23:03;2.50;;;1.60;;
10554;SDS011;5326;51.522;7.388;2022-11-15T17:25:29;3.23;;;1.60;;
10554;SDS011;5326;51.522;7.388;2022-11-15T17:27:56;2.40;;;1.70;;
10554;SDS011;5326;51.522;7.388;2022-11-15T17:30:23;2.87;;;2.20;;
10554;SDS011;5326;51.522;7.388;2022-11-15T17:32:49;2.40;;;2.03;;
10554;SDS011;5326;51.522;7.388;2022-11-15T17:35:16;3.97;;;1.93;;
10554;SDS011;5326;51.522;7.388;2022-11-15T17:37:43;3.57;;;1.63;;
10554;SDS011;5326;51.522;7.388;2022-11-15T17:40:10;2.27;;;2.07;;
10554;SDS011;5326;51.522;7.388;2022-11-15T17:42:39;2.90;;;1.97;;
10554;SDS011;5326;51.522;7.388;2022-11-15T17:45:06;2.13;;;1.80;;
10554;SDS011;5326;51.522;7.388;2022-11-15T17:47:36;3.20;;;2.00;;
10554;SDS011;5326;51.522;7.388;2022-11-15T17:50:02;2.90;;;1.80;;
10554;SDS011;5326;51.522;7.388;2022-11-15T17:52:29;1.70;;;1.60;;
10554;SDS011;5326;51.522;7.388;2022-11-15T17:54:56;2.73;;;1.70;;
10554;SDS011;5326;51.522;7.388;2022-11-15T17:57:23;2.97;;;1.70;;
10554;SDS011;5326;51.522;7.388;2022-11-15T17:59:49;2.50;;;1.77;;